sensor_id;sensor_type;location;lat;lon;timestamp;P1;durP1;ratioP1;P2;durP2;ratioP2
51238;SDS011;38154;47.548;18.828;2023-07-24T00:01:33;5.25;;;2.42;;
51238;SDS011;38154;47.548;18.828;2023-07-24T00:03:59;3.08;;;1.98;;
51238;SDS011;38154;47.548;18.828;2023-07-24T00:06:25;5.53;;;2.28;;
51238;SDS011;38154;47.548;18.828;2023-07-24T00:08:51;4.00;;;1.90;;
51238;SDS011;38154;47.548;18.828;2023-07-24T00:11:17;3.65;;;2.10;;
51238;SDS011;38154;47.548;18.828;2023-07-24T00:13:43;3.15;;;2.15;;
51238;SDS011;38154;47.548;18.828;2023-07-24T00:16:10;3.58;;;2.08;;
51238;SDS011;38154;47.548;18.828;2023-07-24T00:18:36;2.40;;;1.98;;
51238;SDS011;38154;47.548;18.828;2023-07-24T00:21:02;5.30;;;2.40;;
51238;SDS011;38154;47.548;18.828;2023-07-24T00:23:28;3.30;;;1.95;;
51238;SDS011;38154;47.548;18.828;2023-07-24T00:25:54;5.28;;;2.15;;
51238;SDS011;38154;47.548;18.828;2023-07-24T00:28:19;3.53;;;1.67;;
51238;SDS011;38154;47.548;18.828;2023-07-24T00:30:45;3.03;;;2.47;;
51238;SDS011;38154;47.548;18.828;2023-07-24T00:33:11;4.47;;;2.40;;
51238;SDS011;38154;47.548;18.828;2023-07-24T00:35:37;3.62;;;1.95;;
51238;SDS011;38154;47.548;18.828;2023-07-24T00:38:03;3.87;;;2.25;;
51238;SDS011;38154;47.548;18.828;2023-07-24T00:40:29;2.62;;;2.08;;
51238;SDS011;38154;47.548;18.828;2023-07-24T00:42:54;3.15;;;2.12;;
51238;SDS011;38154;47.548;18.828;2023-07-24T00:45:21;4.78;;;2.00;;
51238;SDS011;38154;47.548;18.828;2023-07-24T00:47:48;2.33;;;1.77;;
51238;SDS011;38154;47.548;18.828;2023-07-24T00:50:14;3.92;;;2.10;;
51238;SDS011;38154;47.548;18.828;2023-07-24T00:52:41;5.12;;;2.53;;
51238;SDS011;38154;47.548;18.828;2023-07-24T00:55:08;5.95;;;2.83;;
51238;SDS011;38154;47.548;18.828;2023-07-24T00:57:36;4.28;;;2.45;;
51238;SDS011;38154;47.548;18.828;2023-07-24T01:00:02;5.15;;;2.67;;
51238;SDS011;38154;47.548;18.828;2023-07-24T01:02:29;4.60;;;2.37;;
51238;SDS011;38154;47.548;18.828;2023-07-24T01:04:55;2.97;;;2.03;;
51238;SDS011;38154;47.548;18.828;2023-07-24T01:07:22;4.50;;;2.30;;
51238;SDS011;38154;47.548;18.828;2023-07-24T01:09:47;5.93;;;2.67;;
51238;SDS011;38154;47.548;18.828;2023-07-24T01:12:16;3.95;;;2.10;;
51238;SDS011;38154;47.548;18.828;2023-07-24T01:15:16;7.62;;;2.37;;
51238;SDS011;38154;47.548;18.828;2023-07-24T01:17:48;2.85;;;2.33;;
51238;SDS011;38154;47.548;18.828;2023-07-24T01:20:22;2.50;;;2.15;;
51238;SDS011;38154;47.548;18.828;2023-07-24T01:25:33;3.65;;;2.12;;
51238;SDS011;38154;47.548;18.828;2023-07-24T01:28:06;4.40;;;2.10;;
51238;SDS011;38154;47.548;18.828;2023-07-24T01:30:33;8.63;;;2.80;;
51238;SDS011;38154;47.548;18.828;2023-07-24T01:32:59;4.20;;;2.28;;
51238;SDS011;38154;47.548;18.828;2023-07-24T01:35:25;4.43;;;2.22;;
51238;SDS011;38154;47.548;18.828;2023-07-24T01:37:53;3.42;;;2.33;;
51238;SDS011;38154;47.548;18.828;2023-07-24T01:40:21;4.00;;;2.03;;
51238;SDS011;38154;47.548;18.828;2023-07-24T01:42:48;3.62;;;2.08;;
51238;SDS011;38154;47.548;18.828;2023-07-24T01:45:15;5.45;;;2.37;;
51238;SDS011;38154;47.548;18.828;2023-07-24T01:47:41;3.50;;;2.47;;
51238;SDS011;38154;47.548;18.828;2023-07-24T01:50:07;4.10;;;2.28;;
51238;SDS011;38154;47.548;18.828;2023-07-24T01:52:33;3.53;;;2.05;;
51238;SDS011;38154;47.548;18.828;2023-07-24T01:54:59;5.12;;;2.55;;
51238;SDS011;38154;47.548;18.828;2023-07-24T01:57:25;5.12;;;2.87;;
51238;SDS011;38154;47.548;18.828;2023-07-24T01:59:51;2.65;;;1.90;;
51238;SDS011;38154;47.548;18.828;2023-07-24T02:02:17;3.20;;;2.30;;
51238;SDS011;38154;47.548;18.828;2023-07-24T02:04:42;6.30;;;2.92;;
51238;SDS011;38154;47.548;18.828;2023-07-24T02:07:08;6.30;;;2.70;;
51238;SDS011;38154;47.548;18.828;2023-07-24T02:09:34;4.32;;;2.53;;
51238;SDS011;38154;47.548;18.828;2023-07-24T02:12:00;4.72;;;2.35;;
51238;SDS011;38154;47.548;18.828;2023-07-24T02:14:27;4.32;;;2.10;;
51238;SDS011;38154;47.548;18.828;2023-07-24T02:16:53;3.50;;;2.53;;
51238;SDS011;38154;47.548;18.828;2023-07-24T02:19:19;4.22;;;2.37;;
51238;SDS011;38154;47.548;18.828;2023-07-24T02:21:45;3.30;;;2.40;;
51238;SDS011;38154;47.548;18.828;2023-07-24T02:24:11;2.85;;;2.50;;
51238;SDS011;38154;47.548;18.828;2023-07-24T02:26:37;3.50;;;2.17;;
51238;SDS011;38154;47.548;18.828;2023-07-24T02:29:03;5.45;;;3.08;;
51238;SDS011;38154;47.548;18.828;2023-07-24T02:31:28;3.90;;;2.37;;
51238;SDS011;38154;47.548;18.828;2023-07-24T02:33:54;3.72;;;2.37;;
51238;SDS011;38154;47.548;18.828;2023-07-24T02:36:20;4.07;;;2.85;;
51238;SDS011;38154;47.548;18.828;2023-07-24T02:38:46;4.20;;;2.28;;
51238;SDS011;38154;47.548;18.828;2023-07-24T02:41:12;4.35;;;2.85;;
51238;SDS011;38154;47.548;18.828;2023-07-24T02:43:38;4.78;;;3.05;;
51238;SDS011;38154;47.548;18.828;2023-07-24T02:46:04;8.27;;;2.95;;
51238;SDS011;38154;47.548;18.828;2023-07-24T02:48:29;6.00;;;2.85;;
51238;SDS011;38154;47.548;18.828;2023-07-24T02:50:55;5.60;;;2.75;;
51238;SDS011;38154;47.548;18.828;2023-07-24T02:53:21;4.25;;;2.60;;
51238;SDS011;38154;47.548;18.828;2023-07-24T02:55:47;3.50;;;2.05;;
51238;SDS011;38154;47.548;18.828;2023-07-24T02:58:13;3.17;;;2.37;;
51238;SDS011;38154;47.548;18.828;2023-07-24T03:00:39;7.37;;;2.87;;
51238;SDS011;38154;47.548;18.828;2023-07-24T03:03:05;4.00;;;2.55;;
51238;SDS011;38154;47.548;18.828;2023-07-24T03:05:33;3.67;;;2.60;;
51238;SDS011;38154;47.548;18.828;2023-07-24T03:07:59;3.85;;;2.45;;
51238;SDS011;38154;47.548;18.828;2023-07-24T03:10:25;4.03;;;2.37;;
51238;SDS011;38154;47.548;18.828;2023-07-24T03:12:51;6.12;;;2.80;;
51238;SDS011;38154;47.548;18.828;2023-07-24T03:15:18;3.83;;;2.60;;
51238;SDS011;38154;47.548;18.828;2023-07-24T03:17:44;6.18;;;2.75;;
51238;SDS011;38154;47.548;18.828;2023-07-24T03:20:13;4.43;;;2.45;;
51238;SDS011;38154;47.548;18.828;2023-07-24T03:22:43;3.65;;;2.20;;
51238;SDS011;38154;47.548;18.828;2023-07-24T03:25:09;6.75;;;2.97;;
51238;SDS011;38154;47.548;18.828;2023-07-24T03:27:35;5.07;;;2.58;;
51238;SDS011;38154;47.548;18.828;2023-07-24T03:30:01;4.65;;;2.42;;
51238;SDS011;38154;47.548;18.828;2023-07-24T03:32:28;5.25;;;2.97;;
51238;SDS011;38154;47.548;18.828;2023-07-24T03:34:54;5.30;;;2.72;;
51238;SDS011;38154;47.548;18.828;2023-07-24T03:37:20;4.75;;;3.00;;
51238;SDS011;38154;47.548;18.828;2023-07-24T03:39:46;5.82;;;3.17;;
51238;SDS011;38154;47.548;18.828;2023-07-24T03:42:24;4.62;;;2.55;;
51238;SDS011;38154;47.548;18.828;2023-07-24T03:44:54;4.07;;;2.85;;
51238;SDS011;38154;47.548;18.828;2023-07-24T03:47:21;4.05;;;2.67;;
51238;SDS011;38154;47.548;18.828;2023-07-24T03:49:47;4.87;;;2.62;;
51238;SDS011;38154;47.548;18.828;2023-07-24T03:52:13;5.25;;;3.05;;
51238;SDS011;38154;47.548;18.828;2023-07-24T03:54:38;5.47;;;3.03;;
51238;SDS011;38154;47.548;18.828;2023-07-24T03:57:04;3.37;;;2.42;;
51238;SDS011;38154;47.548;18.828;2023-07-24T03:59:30;4.20;;;2.65;;
51238;SDS011;38154;47.548;18.828;2023-07-24T04:01:57;5.95;;;2.85;;
51238;SDS011;38154;47.548;18.828;2023-07-24T04:04:23;4.85;;;3.00;;
51238;SDS011;38154;47.548;18.828;2023-07-24T04:06:49;3.92;;;2.70;;
51238;SDS011;38154;47.548;18.828;2023-07-24T04:09:16;3.92;;;2.47;;
51238;SDS011;38154;47.548;18.828;2023-07-24T04:11:42;6.75;;;3.00;;
51238;SDS011;38154;47.548;18.828;2023-07-24T04:14:08;3.30;;;2.53;;
51238;SDS011;38154;47.548;18.828;2023-07-24T04:16:34;4.18;;;2.75;;
51238;SDS011;38154;47.548;18.828;2023-07-24T04:19:00;4.15;;;2.67;;
51238;SDS011;38154;47.548;18.828;2023-07-24T04:21:26;4.55;;;2.67;;
51238;SDS011;38154;47.548;18.828;2023-07-24T04:23:52;6.18;;;2.97;;
51238;SDS011;38154;47.548;18.828;2023-07-24T04:26:18;3.60;;;2.50;;
51238;SDS011;38154;47.548;18.828;2023-07-24T04:28:44;4.25;;;2.58;;
51238;SDS011;38154;47.548;18.828;2023-07-24T04:31:09;5.05;;;2.62;;
51238;SDS011;38154;47.548;18.828;2023-07-24T04:33:35;5.80;;;3.30;;
51238;SDS011;38154;47.548;18.828;2023-07-24T04:36:01;5.45;;;2.87;;
51238;SDS011;38154;47.548;18.828;2023-07-24T04:38:27;5.22;;;2.90;;
51238;SDS011;38154;47.548;18.828;2023-07-24T04:40:53;4.03;;;2.97;;
51238;SDS011;38154;47.548;18.828;2023-07-24T04:43:19;4.90;;;3.10;;
51238;SDS011;38154;47.548;18.828;2023-07-24T04:45:45;3.90;;;2.53;;
51238;SDS011;38154;47.548;18.828;2023-07-24T04:48:10;4.80;;;3.15;;
51238;SDS011;38154;47.548;18.828;2023-07-24T04:50:36;5.80;;;3.10;;
51238;SDS011;38154;47.548;18.828;2023-07-24T04:53:02;4.78;;;2.72;;
51238;SDS011;38154;47.548;18.828;2023-07-24T04:55:28;4.12;;;3.22;;
51238;SDS011;38154;47.548;18.828;2023-07-24T04:57:54;11.02;;;3.08;;
51238;SDS011;38154;47.548;18.828;2023-07-24T05:00:20;5.85;;;3.25;;
51238;SDS011;38154;47.548;18.828;2023-07-24T05:02:46;4.25;;;2.75;;
51238;SDS011;38154;47.548;18.828;2023-07-24T05:05:11;4.87;;;3.17;;
51238;SDS011;38154;47.548;18.828;2023-07-24T05:07:37;5.53;;;3.42;;
51238;SDS011;38154;47.548;18.828;2023-07-24T05:10:03;6.00;;;3.12;;
51238;SDS011;38154;47.548;18.828;2023-07-24T05:14:55;5.03;;;3.05;;
51238;SDS011;38154;47.548;18.828;2023-07-24T05:17:21;4.93;;;3.05;;
51238;SDS011;38154;47.548;18.828;2023-07-24T05:19:47;6.00;;;3.62;;
51238;SDS011;38154;47.548;18.828;2023-07-24T05:22:13;5.60;;;3.05;;
51238;SDS011;38154;47.548;18.828;2023-07-24T05:24:39;3.47;;;2.53;;
51238;SDS011;38154;47.548;18.828;2023-07-24T05:27:05;4.68;;;2.85;;
51238;SDS011;38154;47.548;18.828;2023-07-24T05:29:31;8.40;;;2.97;;
51238;SDS011;38154;47.548;18.828;2023-07-24T05:31:57;7.47;;;3.22;;
51238;SDS011;38154;47.548;18.828;2023-07-24T05:34:24;4.25;;;2.70;;
51238;SDS011;38154;47.548;18.828;2023-07-24T05:36:51;5.65;;;3.12;;
51238;SDS011;38154;47.548;18.828;2023-07-24T05:39:17;7.32;;;3.65;;
51238;SDS011;38154;47.548;18.828;2023-07-24T05:41:43;4.85;;;3.10;;
51238;SDS011;38154;47.548;18.828;2023-07-24T05:44:08;5.32;;;2.60;;
51238;SDS011;38154;47.548;18.828;2023-07-24T05:46:34;7.30;;;3.72;;
51238;SDS011;38154;47.548;18.828;2023-07-24T05:49:00;6.28;;;3.35;;
51238;SDS011;38154;47.548;18.828;2023-07-24T05:51:27;5.80;;;2.75;;
51238;SDS011;38154;47.548;18.828;2023-07-24T05:53:53;3.35;;;2.75;;
51238;SDS011;38154;47.548;18.828;2023-07-24T05:56:19;6.22;;;3.35;;
51238;SDS011;38154;47.548;18.828;2023-07-24T05:58:45;7.68;;;2.78;;
51238;SDS011;38154;47.548;18.828;2023-07-24T06:01:11;3.83;;;2.87;;
51238;SDS011;38154;47.548;18.828;2023-07-24T06:03:37;5.97;;;3.25;;
51238;SDS011;38154;47.548;18.828;2023-07-24T06:06:04;5.65;;;2.80;;
51238;SDS011;38154;47.548;18.828;2023-07-24T06:08:30;5.03;;;3.33;;
51238;SDS011;38154;47.548;18.828;2023-07-24T06:10:56;5.80;;;3.40;;
51238;SDS011;38154;47.548;18.828;2023-07-24T06:13:22;7.00;;;3.67;;
51238;SDS011;38154;47.548;18.828;2023-07-24T06:15:48;5.62;;;3.53;;
51238;SDS011;38154;47.548;18.828;2023-07-24T06:18:16;8.98;;;3.08;;
51238;SDS011;38154;47.548;18.828;2023-07-24T06:20:41;5.90;;;3.55;;
51238;SDS011;38154;47.548;18.828;2023-07-24T06:23:07;6.12;;;3.10;;
51238;SDS011;38154;47.548;18.828;2023-07-24T06:25:33;5.03;;;2.90;;
51238;SDS011;38154;47.548;18.828;2023-07-24T06:27:59;9.45;;;3.62;;
51238;SDS011;38154;47.548;18.828;2023-07-24T06:32:51;6.82;;;2.90;;
51238;SDS011;38154;47.548;18.828;2023-07-24T06:37:42;5.97;;;3.58;;
51238;SDS011;38154;47.548;18.828;2023-07-24T06:40:09;7.20;;;3.42;;
51238;SDS011;38154;47.548;18.828;2023-07-24T06:42:35;4.68;;;2.80;;
51238;SDS011;38154;47.548;18.828;2023-07-24T06:45:01;5.15;;;3.20;;
51238;SDS011;38154;47.548;18.828;2023-07-24T06:47:27;7.25;;;3.35;;
51238;SDS011;38154;47.548;18.828;2023-07-24T06:49:53;5.25;;;2.80;;
51238;SDS011;38154;47.548;18.828;2023-07-24T06:52:19;5.37;;;2.83;;
51238;SDS011;38154;47.548;18.828;2023-07-24T06:54:45;2.80;;;2.42;;
51238;SDS011;38154;47.548;18.828;2023-07-24T06:57:11;6.97;;;2.87;;
51238;SDS011;38154;47.548;18.828;2023-07-24T06:59:36;5.70;;;3.35;;
51238;SDS011;38154;47.548;18.828;2023-07-24T07:02:02;5.05;;;2.75;;
51238;SDS011;38154;47.548;18.828;2023-07-24T07:04:28;5.00;;;2.85;;
51238;SDS011;38154;47.548;18.828;2023-07-24T07:06:54;4.25;;;2.87;;
51238;SDS011;38154;47.548;18.828;2023-07-24T07:09:20;5.75;;;2.75;;
51238;SDS011;38154;47.548;18.828;2023-07-24T07:11:46;4.40;;;3.20;;
51238;SDS011;38154;47.548;18.828;2023-07-24T07:14:12;8.43;;;2.92;;
51238;SDS011;38154;47.548;18.828;2023-07-24T07:16:38;3.35;;;2.60;;
51238;SDS011;38154;47.548;18.828;2023-07-24T07:19:04;5.07;;;2.53;;
51238;SDS011;38154;47.548;18.828;2023-07-24T07:21:30;4.45;;;2.53;;
51238;SDS011;38154;47.548;18.828;2023-07-24T07:23:55;4.05;;;2.75;;
51238;SDS011;38154;47.548;18.828;2023-07-24T07:26:21;3.90;;;2.45;;
51238;SDS011;38154;47.548;18.828;2023-07-24T07:28:48;4.68;;;2.75;;
51238;SDS011;38154;47.548;18.828;2023-07-24T07:31:14;5.28;;;2.42;;
51238;SDS011;38154;47.548;18.828;2023-07-24T07:33:39;5.00;;;2.60;;
51238;SDS011;38154;47.548;18.828;2023-07-24T07:36:05;5.00;;;2.87;;
51238;SDS011;38154;47.548;18.828;2023-07-24T07:38:31;4.18;;;2.78;;
51238;SDS011;38154;47.548;18.828;2023-07-24T07:40:58;5.82;;;3.28;;
51238;SDS011;38154;47.548;18.828;2023-07-24T07:43:24;9.40;;;3.50;;
51238;SDS011;38154;47.548;18.828;2023-07-24T07:45:56;5.45;;;2.78;;
51238;SDS011;38154;47.548;18.828;2023-07-24T07:48:22;5.35;;;3.00;;
51238;SDS011;38154;47.548;18.828;2023-07-24T07:50:51;6.70;;;3.03;;
51238;SDS011;38154;47.548;18.828;2023-07-24T07:53:17;5.50;;;2.75;;
51238;SDS011;38154;47.548;18.828;2023-07-24T07:55:43;6.95;;;3.22;;
51238;SDS011;38154;47.548;18.828;2023-07-24T07:58:09;6.53;;;3.08;;
51238;SDS011;38154;47.548;18.828;2023-07-24T08:00:35;6.57;;;3.08;;
51238;SDS011;38154;47.548;18.828;2023-07-24T08:03:01;5.30;;;3.05;;
51238;SDS011;38154;47.548;18.828;2023-07-24T08:05:27;7.07;;;3.20;;
51238;SDS011;38154;47.548;18.828;2023-07-24T08:07:53;4.68;;;2.72;;
51238;SDS011;38154;47.548;18.828;2023-07-24T08:10:19;5.18;;;3.67;;
51238;SDS011;38154;47.548;18.828;2023-07-24T08:12:45;6.85;;;3.50;;
51238;SDS011;38154;47.548;18.828;2023-07-24T08:15:11;4.05;;;2.85;;
51238;SDS011;38154;47.548;18.828;2023-07-24T08:17:37;4.53;;;2.87;;
51238;SDS011;38154;47.548;18.828;2023-07-24T08:20:03;6.62;;;3.80;;
51238;SDS011;38154;47.548;18.828;2023-07-24T08:22:29;5.82;;;3.45;;
51238;SDS011;38154;47.548;18.828;2023-07-24T08:24:55;7.78;;;3.65;;
51238;SDS011;38154;47.548;18.828;2023-07-24T08:27:21;7.32;;;3.10;;
51238;SDS011;38154;47.548;18.828;2023-07-24T08:29:50;5.53;;;3.25;;
51238;SDS011;38154;47.548;18.828;2023-07-24T08:32:17;5.82;;;3.42;;
51238;SDS011;38154;47.548;18.828;2023-07-24T08:34:42;6.32;;;3.22;;
51238;SDS011;38154;47.548;18.828;2023-07-24T08:37:08;6.00;;;3.40;;
51238;SDS011;38154;47.548;18.828;2023-07-24T08:39:34;10.30;;;3.67;;
51238;SDS011;38154;47.548;18.828;2023-07-24T08:42:07;6.00;;;3.00;;
51238;SDS011;38154;47.548;18.828;2023-07-24T08:44:33;6.35;;;3.40;;
51238;SDS011;38154;47.548;18.828;2023-07-24T08:47:00;5.87;;;3.53;;
51238;SDS011;38154;47.548;18.828;2023-07-24T08:49:27;7.10;;;3.85;;
51238;SDS011;38154;47.548;18.828;2023-07-24T08:51:55;6.25;;;3.45;;
51238;SDS011;38154;47.548;18.828;2023-07-24T08:54:24;10.50;;;3.78;;
51238;SDS011;38154;47.548;18.828;2023-07-24T08:56:52;7.85;;;3.30;;
51238;SDS011;38154;47.548;18.828;2023-07-24T08:59:19;5.45;;;3.62;;
51238;SDS011;38154;47.548;18.828;2023-07-24T09:01:45;7.70;;;3.78;;
51238;SDS011;38154;47.548;18.828;2023-07-24T09:04:11;6.32;;;3.58;;
51238;SDS011;38154;47.548;18.828;2023-07-24T09:06:36;5.72;;;3.47;;
51238;SDS011;38154;47.548;18.828;2023-07-24T09:09:02;6.00;;;3.20;;
51238;SDS011;38154;47.548;18.828;2023-07-24T09:11:50;5.90;;;3.47;;
51238;SDS011;38154;47.548;18.828;2023-07-24T09:14:21;6.25;;;3.53;;
51238;SDS011;38154;47.548;18.828;2023-07-24T09:17:07;5.12;;;3.10;;
51238;SDS011;38154;47.548;18.828;2023-07-24T09:19:34;6.43;;;3.67;;
51238;SDS011;38154;47.548;18.828;2023-07-24T09:22:13;7.07;;;3.97;;
51238;SDS011;38154;47.548;18.828;2023-07-24T09:24:50;6.00;;;3.10;;
51238;SDS011;38154;47.548;18.828;2023-07-24T09:27:23;8.48;;;3.62;;
51238;SDS011;38154;47.548;18.828;2023-07-24T09:29:51;6.03;;;3.42;;
51238;SDS011;38154;47.548;18.828;2023-07-24T09:32:19;8.18;;;4.10;;
51238;SDS011;38154;47.548;18.828;2023-07-24T09:34:47;5.25;;;3.70;;
51238;SDS011;38154;47.548;18.828;2023-07-24T09:37:23;14.27;;;3.90;;
51238;SDS011;38154;47.548;18.828;2023-07-24T09:39:50;6.93;;;3.47;;
51238;SDS011;38154;47.548;18.828;2023-07-24T09:42:16;4.78;;;3.08;;
51238;SDS011;38154;47.548;18.828;2023-07-24T09:44:42;8.95;;;3.87;;
51238;SDS011;38154;47.548;18.828;2023-07-24T09:47:08;6.47;;;3.62;;
51238;SDS011;38154;47.548;18.828;2023-07-24T09:49:34;6.87;;;4.28;;
51238;SDS011;38154;47.548;18.828;2023-07-24T09:52:00;7.40;;;3.58;;
51238;SDS011;38154;47.548;18.828;2023-07-24T09:54:36;7.93;;;4.25;;
51238;SDS011;38154;47.548;18.828;2023-07-24T09:57:10;7.45;;;3.53;;
51238;SDS011;38154;47.548;18.828;2023-07-24T09:59:38;11.70;;;3.95;;
51238;SDS011;38154;47.548;18.828;2023-07-24T10:02:05;7.57;;;4.03;;
51238;SDS011;38154;47.548;18.828;2023-07-24T10:04:35;9.27;;;3.87;;
51238;SDS011;38154;47.548;18.828;2023-07-24T10:07:04;7.30;;;4.15;;
51238;SDS011;38154;47.548;18.828;2023-07-24T10:09:31;8.02;;;4.35;;
51238;SDS011;38154;47.548;18.828;2023-07-24T10:11:57;7.47;;;4.15;;
51238;SDS011;38154;47.548;18.828;2023-07-24T10:14:24;8.77;;;3.83;;
51238;SDS011;38154;47.548;18.828;2023-07-24T10:16:51;11.23;;;4.65;;
51238;SDS011;38154;47.548;18.828;2023-07-24T10:19:21;7.12;;;3.75;;
51238;SDS011;38154;47.548;18.828;2023-07-24T10:21:47;9.75;;;4.00;;
51238;SDS011;38154;47.548;18.828;2023-07-24T10:24:17;5.97;;;3.78;;
51238;SDS011;38154;47.548;18.828;2023-07-24T10:26:43;7.30;;;4.18;;
51238;SDS011;38154;47.548;18.828;2023-07-24T10:29:09;6.00;;;2.85;;
51238;SDS011;38154;47.548;18.828;2023-07-24T10:31:36;6.72;;;3.58;;
51238;SDS011;38154;47.548;18.828;2023-07-24T10:34:05;8.85;;;4.18;;
51238;SDS011;38154;47.548;18.828;2023-07-24T10:36:35;6.70;;;4.07;;
51238;SDS011;38154;47.548;18.828;2023-07-24T10:39:02;7.97;;;3.78;;
51238;SDS011;38154;47.548;18.828;2023-07-24T10:41:34;7.55;;;3.97;;
51238;SDS011;38154;47.548;18.828;2023-07-24T10:44:01;8.95;;;4.20;;
51238;SDS011;38154;47.548;18.828;2023-07-24T10:46:35;9.25;;;3.65;;
51238;SDS011;38154;47.548;18.828;2023-07-24T10:49:05;7.60;;;4.05;;
51238;SDS011;38154;47.548;18.828;2023-07-24T10:51:33;8.27;;;3.87;;
51238;SDS011;38154;47.548;18.828;2023-07-24T10:54:01;6.40;;;3.40;;
51238;SDS011;38154;47.548;18.828;2023-07-24T10:56:28;8.98;;;3.85;;
51238;SDS011;38154;47.548;18.828;2023-07-24T10:58:54;6.15;;;3.60;;
51238;SDS011;38154;47.548;18.828;2023-07-24T11:01:20;7.22;;;3.60;;
51238;SDS011;38154;47.548;18.828;2023-07-24T11:03:47;11.50;;;3.90;;
51238;SDS011;38154;47.548;18.828;2023-07-24T11:06:15;5.95;;;3.58;;
51238;SDS011;38154;47.548;18.828;2023-07-24T11:08:42;8.65;;;3.83;;
51238;SDS011;38154;47.548;18.828;2023-07-24T11:11:16;7.55;;;4.15;;
51238;SDS011;38154;47.548;18.828;2023-07-24T11:13:41;9.05;;;3.90;;
51238;SDS011;38154;47.548;18.828;2023-07-24T11:16:08;7.20;;;3.62;;
51238;SDS011;38154;47.548;18.828;2023-07-24T11:18:43;7.93;;;3.83;;
51238;SDS011;38154;47.548;18.828;2023-07-24T11:21:11;7.70;;;3.70;;
51238;SDS011;38154;47.548;18.828;2023-07-24T11:23:38;8.30;;;3.70;;
51238;SDS011;38154;47.548;18.828;2023-07-24T11:26:10;8.90;;;3.90;;
51238;SDS011;38154;47.548;18.828;2023-07-24T11:28:39;8.07;;;3.87;;
51238;SDS011;38154;47.548;18.828;2023-07-24T11:31:06;7.28;;;3.85;;
51238;SDS011;38154;47.548;18.828;2023-07-24T11:33:31;7.57;;;3.45;;
51238;SDS011;38154;47.548;18.828;2023-07-24T11:35:58;7.10;;;3.83;;
51238;SDS011;38154;47.548;18.828;2023-07-24T11:38:25;6.50;;;3.60;;
51238;SDS011;38154;47.548;18.828;2023-07-24T11:40:53;7.75;;;3.62;;
51238;SDS011;38154;47.548;18.828;2023-07-24T11:43:21;6.80;;;3.12;;
51238;SDS011;38154;47.548;18.828;2023-07-24T11:45:49;7.65;;;3.80;;
51238;SDS011;38154;47.548;18.828;2023-07-24T11:48:20;10.88;;;3.70;;
51238;SDS011;38154;47.548;18.828;2023-07-24T11:50:50;9.20;;;3.95;;
51238;SDS011;38154;47.548;18.828;2023-07-24T11:55:51;5.97;;;3.17;;
51238;SDS011;38154;47.548;18.828;2023-07-24T11:58:19;7.50;;;4.05;;
51238;SDS011;38154;47.548;18.828;2023-07-24T12:00:46;7.78;;;4.20;;
51238;SDS011;38154;47.548;18.828;2023-07-24T12:03:26;10.70;;;4.18;;
51238;SDS011;38154;47.548;18.828;2023-07-24T12:05:53;8.32;;;3.95;;
51238;SDS011;38154;47.548;18.828;2023-07-24T12:08:32;6.37;;;3.47;;
51238;SDS011;38154;47.548;18.828;2023-07-24T12:10:59;7.65;;;3.67;;
51238;SDS011;38154;47.548;18.828;2023-07-24T12:13:25;7.10;;;3.42;;
51238;SDS011;38154;47.548;18.828;2023-07-24T12:15:51;8.57;;;3.37;;
51238;SDS011;38154;47.548;18.828;2023-07-24T12:18:17;9.13;;;3.62;;
51238;SDS011;38154;47.548;18.828;2023-07-24T12:20:43;6.50;;;3.75;;
51238;SDS011;38154;47.548;18.828;2023-07-24T12:23:09;8.00;;;3.75;;
51238;SDS011;38154;47.548;18.828;2023-07-24T12:25:35;11.65;;;4.90;;
51238;SDS011;38154;47.548;18.828;2023-07-24T12:28:01;8.13;;;3.45;;
51238;SDS011;38154;47.548;18.828;2023-07-24T12:30:27;6.87;;;3.47;;
51238;SDS011;38154;47.548;18.828;2023-07-24T12:32:53;6.65;;;3.53;;
51238;SDS011;38154;47.548;18.828;2023-07-24T12:35:19;9.00;;;3.47;;
51238;SDS011;38154;47.548;18.828;2023-07-24T12:37:45;9.50;;;3.72;;
51238;SDS011;38154;47.548;18.828;2023-07-24T12:40:11;7.85;;;3.40;;
51238;SDS011;38154;47.548;18.828;2023-07-24T12:42:37;7.30;;;3.42;;
51238;SDS011;38154;47.548;18.828;2023-07-24T12:45:03;8.82;;;3.87;;
51238;SDS011;38154;47.548;18.828;2023-07-24T12:47:30;7.50;;;3.60;;
51238;SDS011;38154;47.548;18.828;2023-07-24T12:49:57;7.95;;;3.60;;
51238;SDS011;38154;47.548;18.828;2023-07-24T12:52:24;5.32;;;3.25;;
51238;SDS011;38154;47.548;18.828;2023-07-24T12:54:51;7.10;;;4.10;;
51238;SDS011;38154;47.548;18.828;2023-07-24T12:57:17;7.68;;;3.72;;
51238;SDS011;38154;47.548;18.828;2023-07-24T12:59:43;9.93;;;3.70;;
51238;SDS011;38154;47.548;18.828;2023-07-24T13:02:09;7.50;;;3.12;;
51238;SDS011;38154;47.548;18.828;2023-07-24T13:04:35;9.82;;;4.43;;
51238;SDS011;38154;47.548;18.828;2023-07-24T13:07:01;8.93;;;3.65;;
51238;SDS011;38154;47.548;18.828;2023-07-24T13:09:27;9.48;;;4.45;;
51238;SDS011;38154;47.548;18.828;2023-07-24T13:11:53;11.93;;;4.35;;
51238;SDS011;38154;47.548;18.828;2023-07-24T13:14:20;7.82;;;4.10;;
51238;SDS011;38154;47.548;18.828;2023-07-24T13:16:46;9.75;;;4.28;;
51238;SDS011;38154;47.548;18.828;2023-07-24T13:19:12;7.80;;;4.03;;
51238;SDS011;38154;47.548;18.828;2023-07-24T13:21:38;8.45;;;3.85;;
51238;SDS011;38154;47.548;18.828;2023-07-24T13:24:09;9.95;;;4.55;;
51238;SDS011;38154;47.548;18.828;2023-07-24T13:26:35;8.50;;;3.95;;
51238;SDS011;38154;47.548;18.828;2023-07-24T13:29:02;11.10;;;4.57;;
51238;SDS011;38154;47.548;18.828;2023-07-24T13:31:28;10.43;;;4.60;;
51238;SDS011;38154;47.548;18.828;2023-07-24T13:33:56;8.73;;;4.32;;
51238;SDS011;38154;47.548;18.828;2023-07-24T13:36:22;9.43;;;4.32;;
51238;SDS011;38154;47.548;18.828;2023-07-24T13:38:48;10.23;;;4.30;;
51238;SDS011;38154;47.548;18.828;2023-07-24T13:41:16;12.55;;;4.90;;
51238;SDS011;38154;47.548;18.828;2023-07-24T13:43:42;11.43;;;4.70;;
51238;SDS011;38154;47.548;18.828;2023-07-24T13:46:08;9.43;;;3.78;;
51238;SDS011;38154;47.548;18.828;2023-07-24T13:48:34;11.18;;;5.03;;
51238;SDS011;38154;47.548;18.828;2023-07-24T13:51:00;10.50;;;4.55;;
51238;SDS011;38154;47.548;18.828;2023-07-24T13:53:26;11.15;;;5.03;;
51238;SDS011;38154;47.548;18.828;2023-07-24T13:55:52;10.70;;;5.03;;
51238;SDS011;38154;47.548;18.828;2023-07-24T13:58:18;10.43;;;4.78;;
51238;SDS011;38154;47.548;18.828;2023-07-24T14:00:44;9.68;;;4.40;;
51238;SDS011;38154;47.548;18.828;2023-07-24T14:03:10;11.27;;;5.25;;
51238;SDS011;38154;47.548;18.828;2023-07-24T14:05:36;10.75;;;4.65;;
51238;SDS011;38154;47.548;18.828;2023-07-24T14:08:02;10.35;;;4.87;;
51238;SDS011;38154;47.548;18.828;2023-07-24T14:10:28;11.80;;;5.28;;
51238;SDS011;38154;47.548;18.828;2023-07-24T14:12:54;12.37;;;4.62;;
51238;SDS011;38154;47.548;18.828;2023-07-24T14:15:20;11.15;;;4.75;;
51238;SDS011;38154;47.548;18.828;2023-07-24T14:17:46;9.98;;;4.37;;
51238;SDS011;38154;47.548;18.828;2023-07-24T14:20:12;11.93;;;4.93;;
51238;SDS011;38154;47.548;18.828;2023-07-24T14:22:38;10.80;;;4.80;;
51238;SDS011;38154;47.548;18.828;2023-07-24T14:25:05;12.07;;;5.35;;
51238;SDS011;38154;47.548;18.828;2023-07-24T14:27:34;11.77;;;4.75;;
51238;SDS011;38154;47.548;18.828;2023-07-24T14:30:00;10.88;;;4.37;;
51238;SDS011;38154;47.548;18.828;2023-07-24T14:32:26;12.43;;;5.35;;
51238;SDS011;38154;47.548;18.828;2023-07-24T14:34:52;9.77;;;4.50;;
51238;SDS011;38154;47.548;18.828;2023-07-24T14:37:18;12.68;;;5.65;;
51238;SDS011;38154;47.548;18.828;2023-07-24T14:39:45;9.18;;;4.68;;
51238;SDS011;38154;47.548;18.828;2023-07-24T14:42:11;10.77;;;4.68;;
51238;SDS011;38154;47.548;18.828;2023-07-24T14:44:37;13.75;;;5.00;;